sensor_id;sensor_type;location;lat;lon;timestamp;pressure;altitude;pressure_sealevel;temperature;humidity
12775;BME280;6451;42.630;23.382;2023-08-06T00:01:01;93346.84;;;19.66;100.00
12775;BME280;6451;42.630;23.382;2023-08-06T00:03:28;93359.91;;;19.62;100.00
12775;BME280;6451;42.630;23.382;2023-08-06T00:05:55;93365.28;;;19.49;100.00
12775;BME280;6451;42.630;23.382;2023-08-06T00:08:22;93343.53;;;19.55;100.00
12775;BME280;6451;42.630;23.382;2023-08-06T00:10:49;93357.69;;;19.37;100.00
12775;BME280;6451;42.630;23.382;2023-08-06T00:13:16;93365.41;;;19.26;100.00
12775;BME280;6451;42.630;23.382;2023-08-06T00:15:43;93342.06;;;19.14;100.00
12775;BME280;6451;42.630;23.382;2023-08-06T00:18:12;93325.66;;;19.10;100.00
12775;BME280;6451;42.630;23.382;2023-08-06T00:20:39;93347.28;;;19.08;100.00
12775;BME280;6451;42.630;23.382;2023-08-06T00:23:07;93349.19;;;18.92;100.00
12775;BME280;6451;42.630;23.382;2023-08-06T00:25:34;93341.03;;;18.68;100.00
12775;BME280;6451;42.630;23.382;2023-08-06T00:28:01;93343.81;;;18.65;100.00
12775;BME280;6451;42.630;23.382;2023-08-06T00:30:28;93336.72;;;18.67;100.00
12775;BME280;6451;42.630;23.382;2023-08-06T00:32:54;93331.78;;;18.78;100.00
12775;BME280;6451;42.630;23.382;2023-08-06T00:35:23;93338.97;;;18.92;100.00
12775;BME280;6451;42.630;23.382;2023-08-06T00:37:50;93297.06;;;18.68;100.00
12775;BME280;6451;42.630;23.382;2023-08-06T00:40:20;93323.09;;;19.00;100.00
12775;BME280;6451;42.630;23.382;2023-08-06T00:42:47;93264.53;;;18.63;100.00
12775;BME280;6451;42.630;23.382;2023-08-06T00:45:14;93318.31;;;19.04;100.00
12775;BME280;6451;42.630;23.382;2023-08-06T00:47:41;93310.56;;;18.99;100.00
12775;BME280;6451;42.630;23.382;2023-08-06T00:50:09;93304.63;;;19.00;100.00
12775;BME280;6451;42.630;23.382;2023-08-06T00:52:37;93308.00;;;19.08;100.00
12775;BME280;6451;42.630;23.382;2023-08-06T00:55:05;93314.44;;;19.01;100.00
12775;BME280;6451;42.630;23.382;2023-08-06T00:57:33;93281.75;;;18.87;100.00
12775;BME280;6451;42.630;23.382;2023-08-06T01:00:02;93284.44;;;18.91;100.00
12775;BME280;6451;42.630;23.382;2023-08-06T01:02:29;93275.22;;;18.81;100.00
12775;BME280;6451;42.630;23.382;2023-08-06T01:04:56;93281.03;;;19.03;100.00
12775;BME280;6451;42.630;23.382;2023-08-06T01:07:36;93283.63;;;19.10;100.00
12775;BME280;6451;42.630;23.382;2023-08-06T01:10:19;93269.03;;;19.13;100.00
12775;BME280;6451;42.630;23.382;2023-08-06T01:12:57;93252.38;;;19.20;100.00
12775;BME280;6451;42.630;23.382;2023-08-06T01:15:29;93263.94;;;19.11;100.00
12775;BME280;6451;42.630;23.382;2023-08-06T01:17:58;93272.28;;;19.24;100.00
12775;BME280;6451;42.630;23.382;2023-08-06T01:20:29;93272.47;;;19.17;100.00
12775;BME280;6451;42.630;23.382;2023-08-06T01:22:56;93257.38;;;19.25;100.00
12775;BME280;6451;42.630;23.382;2023-08-06T01:25:26;93236.81;;;19.46;100.00
12775;BME280;6451;42.630;23.382;2023-08-06T01:28:01;93232.44;;;19.32;100.00
12775;BME280;6451;42.630;23.382;2023-08-06T01:30:33;93246.88;;;19.53;100.00
12775;BME280;6451;42.630;23.382;2023-08-06T01:33:04;93229.09;;;19.25;100.00
12775;BME280;6451;42.630;23.382;2023-08-06T01:35:34;93241.38;;;19.20;100.00
12775;BME280;6451;42.630;23.382;2023-08-06T01:38:02;93254.78;;;19.18;100.00
12775;BME280;6451;42.630;23.382;2023-08-06T01:40:29;93203.19;;;19.06;100.00
12775;BME280;6451;42.630;23.382;2023-08-06T01:42:57;93237.97;;;19.49;100.00
12775;BME280;6451;42.630;23.382;2023-08-06T01:45:24;93241.81;;;19.35;100.00
12775;BME280;6451;42.630;23.382;2023-08-06T01:47:51;93241.84;;;19.67;100.00
12775;BME280;6451;42.630;23.382;2023-08-06T01:50:18;93215.53;;;19.66;100.00
12775;BME280;6451;42.630;23.382;2023-08-06T01:52:46;93231.41;;;19.42;100.00
12775;BME280;6451;42.630;23.382;2023-08-06T01:55:13;93239.22;;;19.44;100.00
12775;BME280;6451;42.630;23.382;2023-08-06T01:57:40;93238.97;;;19.38;100.00
12775;BME280;6451;42.630;23.382;2023-08-06T02:00:08;93233.81;;;19.40;100.00
12775;BME280;6451;42.630;23.382;2023-08-06T02:02:35;93234.06;;;19.30;100.00
12775;BME280;6451;42.630;23.382;2023-08-06T02:05:01;93227.94;;;19.22;100.00
12775;BME280;6451;42.630;23.382;2023-08-06T02:07:28;93226.56;;;19.14;100.00
12775;BME280;6451;42.630;23.382;2023-08-06T02:09:57;93216.69;;;19.16;100.00
12775;BME280;6451;42.630;23.382;2023-08-06T02:12:23;93213.88;;;19.20;100.00
12775;BME280;6451;42.630;23.382;2023-08-06T02:14:51;93230.66;;;19.42;100.00
12775;BME280;6451;42.630;23.382;2023-08-06T02:17:18;93224.53;;;19.34;100.00
12775;BME280;6451;42.630;23.382;2023-08-06T02:19:44;93221.06;;;19.30;100.00
12775;BME280;6451;42.630;23.382;2023-08-06T02:22:11;93235.00;;;19.23;100.00
12775;BME280;6451;42.630;23.382;2023-08-06T02:24:38;93227.28;;;19.18;100.00
12775;BME280;6451;42.630;23.382;2023-08-06T02:27:07;93229.81;;;19.09;100.00
12775;BME280;6451;42.630;23.382;2023-08-06T02:29:34;93245.00;;;18.97;100.00
12775;BME280;6451;42.630;23.382;2023-08-06T02:32:01;93256.44;;;18.96;100.00
12775;BME280;6451;42.630;23.382;2023-08-06T02:34:28;93191.00;;;18.51;100.00
12775;BME280;6451;42.630;23.382;2023-08-06T02:36:55;93222.78;;;18.52;100.00
12775;BME280;6451;42.630;23.382;2023-08-06T02:39:22;93065.72;;;17.61;100.00
12775;BME280;6451;42.630;23.382;2023-08-06T02:41:49;93240.75;;;18.56;100.00
12775;BME280;6451;42.630;23.382;2023-08-06T02:44:17;93281.13;;;18.79;100.00
12775;BME280;6451;42.630;23.382;2023-08-06T02:46:44;93269.19;;;19.06;100.00
12775;BME280;6451;42.630;23.382;2023-08-06T02:49:11;93255.41;;;18.70;100.00
12775;BME280;6451;42.630;23.382;2023-08-06T02:51:38;93191.03;;;18.31;100.00
12775;BME280;6451;42.630;23.382;2023-08-06T02:54:05;93256.81;;;18.78;100.00
12775;BME280;6451;42.630;23.382;2023-08-06T02:56:32;93182.22;;;18.40;100.00
12775;BME280;6451;42.630;23.382;2023-08-06T02:59:01;93236.81;;;18.57;100.00
12775;BME280;6451;42.630;23.382;2023-08-06T03:01:29;93253.78;;;18.52;100.00
12775;BME280;6451;42.630;23.382;2023-08-06T03:03:56;93252.50;;;18.57;100.00
12775;BME280;6451;42.630;23.382;2023-08-06T03:06:23;93222.06;;;18.48;100.00
12775;BME280;6451;42.630;23.382;2023-08-06T03:08:50;93218.25;;;18.61;100.00
12775;BME280;6451;42.630;23.382;2023-08-06T03:11:17;93184.81;;;18.47;100.00
12775;BME280;6451;42.630;23.382;2023-08-06T03:13:44;93183.94;;;18.33;100.00
12775;BME280;6451;42.630;23.382;2023-08-06T03:16:11;93241.28;;;18.48;100.00
12775;BME280;6451;42.630;23.382;2023-08-06T03:18:39;93241.75;;;18.66;100.00
12775;BME280;6451;42.630;23.382;2023-08-06T03:21:06;93187.94;;;18.49;100.00
12775;BME280;6451;42.630;23.382;2023-08-06T03:23:33;93195.78;;;18.86;100.00
12775;BME280;6451;42.630;23.382;2023-08-06T03:26:01;93226.28;;;18.92;100.00
12775;BME280;6451;42.630;23.382;2023-08-06T03:28:28;93252.94;;;18.75;100.00
12775;BME280;6451;42.630;23.382;2023-08-06T03:30:59;93236.81;;;18.57;100.00
12775;BME280;6451;42.630;23.382;2023-08-06T03:33:26;93262.81;;;18.73;100.00
12775;BME280;6451;42.630;23.382;2023-08-06T03:35:54;93256.13;;;18.74;100.00
12775;BME280;6451;42.630;23.382;2023-08-06T03:38:22;93233.28;;;18.77;100.00
12775;BME280;6451;42.630;23.382;2023-08-06T03:40:49;93239.47;;;18.81;100.00
12775;BME280;6451;42.630;23.382;2023-08-06T03:43:16;93259.63;;;18.74;100.00
12775;BME280;6451;42.630;23.382;2023-08-06T03:45:44;93273.66;;;18.80;100.00
12775;BME280;6451;42.630;23.382;2023-08-06T03:48:11;93219.75;;;18.46;100.00
12775;BME280;6451;42.630;23.382;2023-08-06T03:50:39;93222.44;;;18.50;100.00
12775;BME280;6451;42.630;23.382;2023-08-06T03:53:08;93269.78;;;18.77;100.00
12775;BME280;6451;42.630;23.382;2023-08-06T03:55:34;93202.91;;;18.44;100.00
12775;BME280;6451;42.630;23.382;2023-08-06T03:58:01;93276.41;;;18.80;100.00
12775;BME280;6451;42.630;23.382;2023-08-06T04:00:28;93290.94;;;18.80;100.00
12775;BME280;6451;42.630;23.382;2023-08-06T04:02:55;93309.25;;;18.87;100.00
12775;BME280;6451;42.630;23.382;2023-08-06T04:05:23;93223.91;;;18.54;100.00
12775;BME280;6451;42.630;23.382;2023-08-06T04:07:50;93303.19;;;18.96;100.00
12775;BME280;6451;42.630;23.382;2023-08-06T04:10:20;93279.50;;;19.02;100.00
12775;BME280;6451;42.630;23.382;2023-08-06T04:12:47;93238.41;;;18.95;100.00
12775;BME280;6451;42.630;23.382;2023-08-06T04:15:14;93250.13;;;19.15;100.00
12775;BME280;6451;42.630;23.382;2023-08-06T04:17:41;93242.44;;;19.06;100.00
12775;BME280;6451;42.630;23.382;2023-08-06T04:20:09;93250.03;;;19.19;100.00
12775;BME280;6451;42.630;23.382;2023-08-06T04:22:36;93250.53;;;19.13;100.00
12775;BME280;6451;42.630;23.382;2023-08-06T04:25:05;93253.72;;;19.12;100.00
12775;BME280;6451;42.630;23.382;2023-08-06T04:27:34;93215.47;;;19.01;100.00
12775;BME280;6451;42.630;23.382;2023-08-06T04:30:02;93215.91;;;19.16;100.00
12775;BME280;6451;42.630;23.382;2023-08-06T04:32:30;93201.03;;;19.13;100.00
12775;BME280;6451;42.630;23.382;2023-08-06T04:34:59;93248.09;;;19.52;100.00
12775;BME280;6451;42.630;23.382;2023-08-06T04:37:26;93188.59;;;19.25;100.00
12775;BME280;6451;42.630;23.382;2023-08-06T04:39:53;93190.75;;;19.34;100.00
12775;BME280;6451;42.630;23.382;2023-08-06T04:42:20;93221.19;;;19.76;100.00
12775;BME280;6451;42.630;23.382;2023-08-06T04:44:54;93222.84;;;19.73;100.00
12775;BME280;6451;42.630;23.382;2023-08-06T04:47:21;93216.63;;;19.69;100.00
12775;BME280;6451;42.630;23.382;2023-08-06T04:49:48;93163.75;;;19.45;100.00
12775;BME280;6451;42.630;23.382;2023-08-06T04:52:15;93208.75;;;20.00;100.00
12775;BME280;6451;42.630;23.382;2023-08-06T04:54:43;93186.25;;;19.89;100.00
12775;BME280;6451;42.630;23.382;2023-08-06T04:57:10;93110.09;;;19.37;100.00
12775;BME280;6451;42.630;23.382;2023-08-06T04:59:38;93188.22;;;19.88;100.00
12775;BME280;6451;42.630;23.382;2023-08-06T05:02:06;93189.13;;;19.69;100.00
12775;BME280;6451;42.630;23.382;2023-08-06T05:04:33;93173.72;;;19.55;100.00
12775;BME280;6451;42.630;23.382;2023-08-06T05:07:01;93167.97;;;19.33;100.00
12775;BME280;6451;42.630;23.382;2023-08-06T05:09:28;93171.75;;;19.56;100.00
12775;BME280;6451;42.630;23.382;2023-08-06T05:11:56;93154.31;;;19.91;100.00
12775;BME280;6451;42.630;23.382;2023-08-06T05:14:23;93201.25;;;20.17;100.00
12775;BME280;6451;42.630;23.382;2023-08-06T05:16:50;93203.06;;;20.36;100.00
12775;BME280;6451;42.630;23.382;2023-08-06T05:19:18;93210.22;;;20.34;100.00
12775;BME280;6451;42.630;23.382;2023-08-06T05:21:46;93208.88;;;20.25;100.00
12775;BME280;6451;42.630;23.382;2023-08-06T05:24:13;93189.53;;;20.13;100.00
12775;BME280;6451;42.630;23.382;2023-08-06T05:26:40;93189.06;;;20.02;100.00
12775;BME280;6451;42.630;23.382;2023-08-06T05:29:07;93184.00;;;19.84;100.00
12775;BME280;6451;42.630;23.382;2023-08-06T05:31:34;93184.16;;;19.93;100.00
12775;BME280;6451;42.630;23.382;2023-08-06T05:34:01;93161.06;;;19.74;100.00
12775;BME280;6451;42.630;23.382;2023-08-06T05:36:30;93197.75;;;20.00;100.00
12775;BME280;6451;42.630;23.382;2023-08-06T05:38:57;93161.25;;;19.67;100.00
12775;BME280;6451;42.630;23.382;2023-08-06T05:41:25;93198.94;;;19.99;100.00
12775;BME280;6451;42.630;23.382;2023-08-06T05:43:52;93174.09;;;20.03;100.00
12775;BME280;6451;42.630;23.382;2023-08-06T05:46:19;93147.69;;;20.18;100.00
12775;BME280;6451;42.630;23.382;2023-08-06T05:48:47;93182.56;;;20.92;100.00
12775;BME280;6451;42.630;23.382;2023-08-06T05:51:14;93189.66;;;21.18;100.00
12775;BME280;6451;42.630;23.382;2023-08-06T05:53:43;93177.94;;;21.27;100.00
12775;BME280;6451;42.630;23.382;2023-08-06T05:56:11;93181.03;;;21.03;100.00
12775;BME280;6451;42.630;23.382;2023-08-06T05:58:38;93150.72;;;21.03;100.00
12775;BME280;6451;42.630;23.382;2023-08-06T06:01:08;93186.66;;;21.25;100.00
12775;BME280;6451;42.630;23.382;2023-08-06T06:03:37;93190.19;;;21.51;100.00
12775;BME280;6451;42.630;23.382;2023-08-06T06:06:09;93187.84;;;21.75;100.00
12775;BME280;6451;42.630;23.382;2023-08-06T06:08:37;93192.91;;;21.77;100.00
12775;BME280;6451;42.630;23.382;2023-08-06T06:11:11;93198.94;;;21.97;100.00
12775;BME280;6451;42.630;23.382;2023-08-06T06:13:48;93206.00;;;21.25;100.00
12775;BME280;6451;42.630;23.382;2023-08-06T06:16:17;93216.06;;;21.32;100.00
12775;BME280;6451;42.630;23.382;2023-08-06T06:18:44;93206.44;;;21.36;100.00
12775;BME280;6451;42.630;23.382;2023-08-06T06:21:11;93197.25;;;20.89;100.00
12775;BME280;6451;42.630;23.382;2023-08-06T06:23:38;93233.44;;;21.03;100.00
12775;BME280;6451;42.630;23.382;2023-08-06T06:26:05;93249.22;;;21.16;100.00
12775;BME280;6451;42.630;23.382;2023-08-06T06:28:34;93239.75;;;21.04;100.00
12775;BME280;6451;42.630;23.382;2023-08-06T06:31:01;93238.97;;;21.03;100.00
12775;BME280;6451;42.630;23.382;2023-08-06T06:33:29;93242.06;;;21.05;100.00
12775;BME280;6451;42.630;23.382;2023-08-06T06:35:56;93257.16;;;21.14;100.00
12775;BME280;6451;42.630;23.382;2023-08-06T06:38:23;93255.41;;;20.94;100.00
12775;BME280;6451;42.630;23.382;2023-08-06T06:40:56;93267.91;;;21.24;100.00
12775;BME280;6451;42.630;23.382;2023-08-06T06:43:24;93265.38;;;21.30;100.00
12775;BME280;6451;42.630;23.382;2023-08-06T06:45:56;93265.50;;;21.52;100.00
12775;BME280;6451;42.630;23.382;2023-08-06T06:48:25;93266.34;;;21.10;100.00
12775;BME280;6451;42.630;23.382;2023-08-06T06:50:52;93260.47;;;21.08;100.00
12775;BME280;6451;42.630;23.382;2023-08-06T06:53:19;93256.38;;;21.00;100.00
12775;BME280;6451;42.630;23.382;2023-08-06T06:56:01;93269.34;;;21.29;100.00
12775;BME280;6451;42.630;23.382;2023-08-06T06:58:29;93275.88;;;21.48;100.00
12775;BME280;6451;42.630;23.382;2023-08-06T07:00:57;93258.06;;;21.10;100.00
12775;BME280;6451;42.630;23.382;2023-08-06T07:03:24;93261.69;;;21.07;100.00
12775;BME280;6451;42.630;23.382;2023-08-06T07:05:51;93279.44;;;21.06;100.00
12775;BME280;6451;42.630;23.382;2023-08-06T07:08:21;93280.47;;;21.13;100.00
12775;BME280;6451;42.630;23.382;2023-08-06T07:10:48;93231.72;;;20.68;100.00
12775;BME280;6451;42.630;23.382;2023-08-06T07:13:15;93266.34;;;21.23;100.00
12775;BME280;6451;42.630;23.382;2023-08-06T07:15:42;93225.91;;;20.91;100.00
12775;BME280;6451;42.630;23.382;2023-08-06T07:18:10;93277.72;;;21.25;100.00
12775;BME280;6451;42.630;23.382;2023-08-06T07:20:37;93273.66;;;21.30;100.00
12775;BME280;6451;42.630;23.382;2023-08-06T07:23:05;93276.19;;;21.37;100.00
12775;BME280;6451;42.630;23.382;2023-08-06T07:25:31;93267.47;;;21.51;100.00
12775;BME280;6451;42.630;23.382;2023-08-06T07:27:58;93270.13;;;21.68;100.00
12775;BME280;6451;42.630;23.382;2023-08-06T07:30:27;93253.56;;;21.68;100.00
12775;BME280;6451;42.630;23.382;2023-08-06T07:32:54;93252.53;;;21.87;100.00
12775;BME280;6451;42.630;23.382;2023-08-06T07:35:22;93254.72;;;22.17;100.00
12775;BME280;6451;42.630;23.382;2023-08-06T07:37:49;93260.84;;;22.34;100.00
12775;BME280;6451;42.630;23.382;2023-08-06T07:40:16;93271.75;;;22.38;100.00
12775;BME280;6451;42.630;23.382;2023-08-06T07:42:44;93261.13;;;22.71;100.00
12775;BME280;6451;42.630;23.382;2023-08-06T07:45:11;93247.34;;;22.36;100.00
12775;BME280;6451;42.630;23.382;2023-08-06T07:47:38;93267.28;;;22.53;100.00
12775;BME280;6451;42.630;23.382;2023-08-06T07:50:06;93285.78;;;22.43;100.00
12775;BME280;6451;42.630;23.382;2023-08-06T07:52:34;93274.97;;;22.36;100.00
12775;BME280;6451;42.630;23.382;2023-08-06T07:55:02;93284.47;;;22.48;100.00
12775;BME280;6451;42.630;23.382;2023-08-06T07:57:32;93280.41;;;22.62;100.00
12775;BME280;6451;42.630;23.382;2023-08-06T07:59:59;93277.56;;;22.53;100.00
12775;BME280;6451;42.630;23.382;2023-08-06T08:02:28;93277.22;;;22.29;100.00
12775;BME280;6451;42.630;23.382;2023-08-06T08:04:55;93264.50;;;22.53;100.00
12775;BME280;6451;42.630;23.382;2023-08-06T08:07:22;93270.66;;;22.70;100.00
12775;BME280;6451;42.630;23.382;2023-08-06T08:09:52;93270.38;;;22.77;100.00
12775;BME280;6451;42.630;23.382;2023-08-06T08:12:18;93241.06;;;22.80;100.00
12775;BME280;6451;42.630;23.382;2023-08-06T08:14:45;93235.34;;;22.96;100.00
12775;BME280;6451;42.630;23.382;2023-08-06T08:17:12;93271.03;;;23.25;100.00
12775;BME280;6451;42.630;23.382;2023-08-06T08:19:39;93267.00;;;23.48;100.00
12775;BME280;6451;42.630;23.382;2023-08-06T08:22:06;93259.97;;;23.25;100.00
12775;BME280;6451;42.630;23.382;2023-08-06T08:24:34;93235.63;;;22.89;100.00
12775;BME280;6451;42.630;23.382;2023-08-06T08:27:03;93269.75;;;23.17;100.00
12775;BME280;6451;42.630;23.382;2023-08-06T08:29:31;93251.69;;;23.03;100.00
12775;BME280;6451;42.630;23.382;2023-08-06T08:31:58;93280.91;;;23.04;100.00
12775;BME280;6451;42.630;23.382;2023-08-06T08:34:25;93261.44;;;22.86;100.00
12775;BME280;6451;42.630;23.382;2023-08-06T08:36:51;93265.31;;;22.97;100.00
12775;BME280;6451;42.630;23.382;2023-08-06T08:39:18;93270.13;;;23.06;100.00
12775;BME280;6451;42.630;23.382;2023-08-06T08:41:46;93273.66;;;23.28;100.00
12775;BME280;6451;42.630;23.382;2023-08-06T08:44:17;93272.03;;;23.09;100.00
12775;BME280;6451;42.630;23.382;2023-08-06T08:46:45;93273.16;;;23.21;100.00
12775;BME280;6451;42.630;23.382;2023-08-06T08:49:15;93215.69;;;22.94;100.00
12775;BME280;6451;42.630;23.382;2023-08-06T08:51:43;93265.31;;;23.50;100.00
12775;BME280;6451;42.630;23.382;2023-08-06T08:54:13;93255.72;;;23.42;100.00
12775;BME280;6451;42.630;23.382;2023-08-06T08:56:42;93231.59;;;23.52;100.00
12775;BME280;6451;42.630;23.382;2023-08-06T08:59:09;93165.63;;;23.10;100.00
12775;BME280;6451;42.630;23.382;2023-08-06T09:01:38;93258.16;;;23.62;100.00
12775;BME280;6451;42.630;23.382;2023-08-06T09:04:07;93248.41;;;23.57;100.00
12775;BME280;6451;42.630;23.382;2023-08-06T09:06:37;93238.25;;;23.54;100.00
12775;BME280;6451;42.630;23.382;2023-08-06T09:09:08;93207.75;;;23.85;100.00
12775;BME280;6451;42.630;23.382;2023-08-06T09:11:37;93234.53;;;23.98;100.00
12775;BME280;6451;42.630;23.382;2023-08-06T09:14:06;93238.03;;;23.40;100.00
12775;BME280;6451;42.630;23.382;2023-08-06T09:16:34;93225.34;;;23.61;100.00
12775;BME280;6451;42.630;23.382;2023-08-06T09:19:08;93200.75;;;23.63;100.00
12775;BME280;6451;42.630;23.382;2023-08-06T09:21:41;93109.28;;;23.35;100.00
12775;BME280;6451;42.630;23.382;2023-08-06T09:24:09;93217.19;;;24.25;100.00
12775;BME280;6451;42.630;23.382;2023-08-06T09:26:37;93222.91;;;24.58;100.00
12775;BME280;6451;42.630;23.382;2023-08-06T09:29:05;93235.53;;;24.59;100.00
12775;BME280;6451;42.630;23.382;2023-08-06T09:31:33;93210.59;;;24.50;100.00
12775;BME280;6451;42.630;23.382;2023-08-06T09:34:01;93228.56;;;24.27;100.00
12775;BME280;6451;42.630;23.382;2023-08-06T09:36:30;93232.13;;;24.46;100.00
12775;BME280;6451;42.630;23.382;2023-08-06T09:38:57;93168.50;;;24.14;100.00
12775;BME280;6451;42.630;23.382;2023-08-06T09:41:27;93167.78;;;24.32;98.13
12775;BME280;6451;42.630;23.382;2023-08-06T09:43:56;93218.75;;;24.72;95.41
12775;BME280;6451;42.630;23.382;2023-08-06T09:46:24;93198.38;;;24.75;95.53
12775;BME280;6451;42.630;23.382;2023-08-06T09:48:50;93209.25;;;25.15;94.42
12775;BME280;6451;42.630;23.382;2023-08-06T09:51:17;93208.66;;;25.11;90.05
12775;BME280;6451;42.630;23.382;2023-08-06T09:53:47;93223.47;;;25.17;90.16
12775;BME280;6451;42.630;23.382;2023-08-06T09:56:17;93207.28;;;24.97;91.04
12775;BME280;6451;42.630;23.382;2023-08-06T09:58:44;93225.59;;;25.22;90.85
12775;BME280;6451;42.630;23.382;2023-08-06T10:01:13;93230.22;;;25.25;91.49
12775;BME280;6451;42.630;23.382;2023-08-06T10:03:40;93181.03;;;25.16;89.25
12775;BME280;6451;42.630;23.382;2023-08-06T10:06:07;93224.00;;;25.30;90.17
12775;BME280;6451;42.630;23.382;2023-08-06T10:08:34;93230.31;;;25.82;87.50
12775;BME280;6451;42.630;23.382;2023-08-06T10:11:04;93208.44;;;25.66;84.53
12775;BME280;6451;42.630;23.382;2023-08-06T10:13:33;93230.69;;;26.23;84.20
12775;BME280;6451;42.630;23.382;2023-08-06T10:16:01;93214.81;;;25.90;86.24
12775;BME280;6451;42.630;23.382;2023-08-06T10:18:29;93230.66;;;25.75;85.59
12775;BME280;6451;42.630;23.382;2023-08-06T10:20:56;93226.63;;;25.76;86.42
12775;BME280;6451;42.630;23.382;2023-08-06T10:23:33;93231.69;;;26.34;84.86
12775;BME280;6451;42.630;23.382;2023-08-06T10:26:03;93232.03;;;26.51;86.48
12775;BME280;6451;42.630;23.382;2023-08-06T10:28:37;93229.75;;;26.02;81.28
12775;BME280;6451;42.630;23.382;2023-08-06T10:31:05;93241.25;;;25.86;83.15
12775;BME280;6451;42.630;23.382;2023-08-06T10:33:42;93247.66;;;25.26;86.84
12775;BME280;6451;42.630;23.382;2023-08-06T10:36:11;93206.81;;;25.17;86.73
12775;BME280;6451;42.630;23.382;2023-08-06T10:38:44;93257.22;;;25.25;88.85
12775;BME280;6451;42.630;23.382;2023-08-06T10:41:29;93248.44;;;25.17;88.48
12775;BME280;6451;42.630;23.382;2023-08-06T10:44:05;93253.69;;;25.06;89.36
12775;BME280;6451;42.630;23.382;2023-08-06T10:46:34;93236.59;;;24.80;89.57
12775;BME280;6451;42.630;23.382;2023-08-06T10:49:02;93255.84;;;24.83;90.02
12775;BME280;6451;42.630;23.382;2023-08-06T10:51:30;93246.94;;;24.52;88.90
12775;BME280;6451;42.630;23.382;2023-08-06T10:53:57;93189.00;;;24.17;90.36
12775;BME280;6451;42.630;23.382;2023-08-06T10:56:26;93286.84;;;24.63;91.16
12775;BME280;6451;42.630;23.382;2023-08-06T10:58:54;93269.38;;;24.17;98.00
12775;BME280;6451;42.630;23.382;2023-08-06T11:01:22;93266.97;;;24.56;95.80
12775;BME280;6451;42.630;23.382;2023-08-06T11:03:50;93285.31;;;24.62;93.44
12775;BME280;6451;42.630;23.382;2023-08-06T11:06:19;93272.06;;;24.85;91.57
12775;BME280;6451;42.630;23.382;2023-08-06T11:08:49;93260.63;;;24.83;90.45
12775;BME280;6451;42.630;23.382;2023-08-06T11:11:17;93280.38;;;25.12;90.46
12775;BME280;6451;42.630;23.382;2023-08-06T11:13:47;93278.63;;;25.33;90.25
12775;BME280;6451;42.630;23.382;2023-08-06T11:16:16;93279.41;;;25.85;89.87
12775;BME280;6451;42.630;23.382;2023-08-06T11:18:44;93283.88;;;25.40;94.15
12775;BME280;6451;42.630;23.382;2023-08-06T11:21:11;93285.53;;;25.38;91.90
12775;BME280;6451;42.630;23.382;2023-08-06T11:23:40;93297.53;;;25.62;91.18
12775;BME280;6451;42.630;23.382;2023-08-06T11:26:08;93288.56;;;25.76;89.56
12775;BME280;6451;42.630;23.382;2023-08-06T11:28:35;93286.22;;;25.84;92.20
12775;BME280;6451;42.630;23.382;2023-08-06T11:31:03;93268.19;;;24.73;96.89
12775;BME280;6451;42.630;23.382;2023-08-06T11:33:31;93319.97;;;24.67;93.46
12775;BME280;6451;42.630;23.382;2023-08-06T11:35:59;93300.47;;;24.12;86.21
12775;BME280;6451;42.630;23.382;2023-08-06T11:38:26;93282.09;;;23.96;84.37
12775;BME280;6451;42.630;23.382;2023-08-06T11:40:54;93298.09;;;24.51;84.60
12775;BME280;6451;42.630;23.382;2023-08-06T11:43:21;93279.34;;;24.05;86.83
12775;BME280;6451;42.630;23.382;2023-08-06T11:45:49;93314.88;;;23.57;92.84
12775;BME280;6451;42.630;23.382;2023-08-06T11:48:19;93286.09;;;23.24;95.42
12775;BME280;6451;42.630;23.382;2023-08-06T11:50:46;93249.81;;;23.00;99.46
12775;BME280;6451;42.630;23.382;2023-08-06T11:53:14;93262.38;;;23.23;100.00
12775;BME280;6451;42.630;23.382;2023-08-06T11:55:42;93284.94;;;23.43;98.67
12775;BME280;6451;42.630;23.382;2023-08-06T11:58:09;93294.94;;;23.63;98.57
12775;BME280;6451;42.630;23.382;2023-08-06T12:00:37;93287.94;;;23.58;100.00
12775;BME280;6451;42.630;23.382;2023-08-06T12:03:05;93236.41;;;23.20;100.00
12775;BME280;6451;42.630;23.382;2023-08-06T12:05:34;93289.06;;;23.61;100.00
12775;BME280;6451;42.630;23.382;2023-08-06T12:08:02;93277.38;;;23.66;100.00
12775;BME280;6451;42.630;23.382;2023-08-06T12:10:30;93294.56;;;23.92;100.00
12775;BME280;6451;42.630;23.382;2023-08-06T12:12:58;93301.19;;;23.94;100.00
12775;BME280;6451;42.630;23.382;2023-08-06T12:15:25;93287.53;;;24.09;100.00
12775;BME280;6451;42.630;23.382;2023-08-06T12:17:52;93278.00;;;24.28;96.58
12775;BME280;6451;42.630;23.382;2023-08-06T12:20:19;93244.28;;;24.21;93.58
12775;BME280;6451;42.630;23.382;2023-08-06T12:22:47;93263.28;;;24.50;92.01
12775;BME280;6451;42.630;23.382;2023-08-06T12:25:15;93284.25;;;24.78;91.90
12775;BME280;6451;42.630;23.382;2023-08-06T12:27:43;93280.06;;;24.83;92.87
12775;BME280;6451;42.630;23.382;2023-08-06T12:30:12;93277.63;;;24.85;93.79
12775;BME280;6451;42.630;23.382;2023-08-06T12:32:39;93283.75;;;24.98;93.96
12775;BME280;6451;42.630;23.382;2023-08-06T12:35:07;93266.31;;;24.98;95.29
12775;BME280;6451;42.630;23.382;2023-08-06T12:37:35;93267.09;;;25.16;94.46
12775;BME280;6451;42.630;23.382;2023-08-06T12:40:06;93287.13;;;25.20;95.80
12775;BME280;6451;42.630;23.382;2023-08-06T12:42:34;93288.38;;;25.19;95.76
12775;BME280;6451;42.630;23.382;2023-08-06T12:45:01;93260.16;;;25.12;94.21
12775;BME280;6451;42.630;23.382;2023-08-06T12:47:28;93262.47;;;24.95;94.91
12775;BME280;6451;42.630;23.382;2023-08-06T12:49:55;93286.38;;;25.02;94.19
12775;BME280;6451;42.630;23.382;2023-08-06T12:52:22;93264.19;;;24.92;93.23
12775;BME280;6451;42.630;23.382;2023-08-06T12:54:49;93259.72;;;24.95;93.22
12775;BME280;6451;42.630;23.382;2023-08-06T12:57:18;93253.53;;;25.18;94.05